createdAt,value
2017-12-02T00:01:18.618Z,0.10
2017-12-02T00:03:46.899Z,0.10
2017-12-02T00:06:15.169Z,0.10
2017-12-02T00:08:43.453Z,0.10
2017-12-02T00:11:10.969Z,0.10
2017-12-02T00:13:38.466Z,0.10
2017-12-02T00:16:06.740Z,0.20
2017-12-02T00:18:35.005Z,0.20
2017-12-02T00:21:02.538Z,0.20
2017-12-02T00:23:30.225Z,0.20
2017-12-02T00:25:58.565Z,0.20
2017-12-02T00:28:26.141Z,0.20
2017-12-02T00:30:53.666Z,0.20
2017-12-02T00:33:21.160Z,0.20
2017-12-02T00:35:48.665Z,0.20
2017-12-02T00:41:08.956Z,0.20
2017-12-02T00:43:36.477Z,0.20
2017-12-02T00:46:03.983Z,0.30
2017-12-02T00:48:31.501Z,0.30
2017-12-02T00:50:59.014Z,0.30
2017-12-02T00:53:26.525Z,0.40
2017-12-02T00:55:54.809Z,0.30
2017-12-02T00:58:23.072Z,0.20
2017-12-02T01:00:51.340Z,0.10
2017-12-02T01:03:18.884Z,0.10
2017-12-02T01:05:46.388Z,0.10
2017-12-02T01:08:13.889Z,0.10
2017-12-02T01:10:41.483Z,0.10
2017-12-02T01:13:09.763Z,0.10
2017-12-02T01:15:37.268Z,0.10
2017-12-02T01:18:04.795Z,0.10
2017-12-02T01:20:32.302Z,0.10
2017-12-02T01:23:00.608Z,0.00
2017-12-02T01:25:28.125Z,0.00
2017-12-02T01:27:55.628Z,0.10
2017-12-02T01:30:23.147Z,0.10
2017-12-02T01:32:50.641Z,0.00
2017-12-02T01:35:18.144Z,0.10
2017-12-02T01:37:45.660Z,0.10
2017-12-02T01:40:13.164Z,0.10
2017-12-02T01:42:40.688Z,0.10
2017-12-02T01:45:08.209Z,0.00
2017-12-02T01:47:36.468Z,0.00
2017-12-02T01:50:03.980Z,0.00
2017-12-02T01:52:31.517Z,0.00
2017-12-02T01:54:59.024Z,0.00
2017-12-02T01:57:26.555Z,0.00
2017-12-02T01:59:54.126Z,0.00
2017-12-02T02:02:21.591Z,0.10
2017-12-02T02:04:49.088Z,0.10
2017-12-02T02:07:17.368Z,0.10
2017-12-02T02:09:45.645Z,0.20
2017-12-02T02:12:13.156Z,0.10
2017-12-02T02:14:40.678Z,0.20
2017-12-02T02:17:08.208Z,0.20
2017-12-02T02:19:36.472Z,0.20
2017-12-02T02:22:04.761Z,0.10
2017-12-02T02:24:33.022Z,0.10
2017-12-02T02:27:01.313Z,0.10
2017-12-02T02:29:28.822Z,0.10
2017-12-02T02:31:56.329Z,0.10
2017-12-02T02:34:23.836Z,0.00
2017-12-02T02:36:51.330Z,0.10
2017-12-02T02:39:19.625Z,0.00
2017-12-02T02:41:47.124Z,0.00
2017-12-02T02:44:14.647Z,0.00
2017-12-02T02:46:42.170Z,0.00
2017-12-02T02:49:10.436Z,0.00
2017-12-02T02:51:38.720Z,0.00
2017-12-02T02:54:07.019Z,0.00
2017-12-02T02:56:34.530Z,0.00
2017-12-02T02:59:02.041Z,0.00
2017-12-02T03:01:29.591Z,0.00
2017-12-02T03:03:57.088Z,0.00
2017-12-02T03:06:24.595Z,0.00
2017-12-02T03:08:52.124Z,0.00
2017-12-02T03:11:19.625Z,0.00
2017-12-02T03:13:47.918Z,-0.10
2017-12-02T03:16:15.456Z,0.00
2017-12-02T03:18:42.960Z,0.00
2017-12-02T03:21:10.471Z,0.00
2017-12-02T03:23:38.000Z,0.00
2017-12-02T03:26:06.268Z,0.00
2017-12-02T03:28:34.541Z,0.10
2017-12-02T03:31:02.831Z,0.10
2017-12-02T03:33:31.101Z,0.10
2017-12-02T03:35:59.367Z,0.10
2017-12-02T03:38:27.644Z,0.00
2017-12-02T03:40:55.923Z,0.10
2017-12-02T03:43:24.193Z,0.00
2017-12-02T03:45:52.488Z,-0.10
2017-12-02T03:48:19.996Z,-0.10
2017-12-02T03:50:47.496Z,-0.10
2017-12-02T03:53:15.796Z,-0.10
2017-12-02T03:55:43.321Z,-0.10
2017-12-02T03:58:11.589Z,0.00
2017-12-02T04:00:40.033Z,0.00
2017-12-02T04:03:07.541Z,0.00
2017-12-02T04:05:35.805Z,-0.10
2017-12-02T04:08:03.551Z,-0.10
2017-12-02T04:10:31.007Z,-0.10
2017-12-02T04:12:58.566Z,-0.10
2017-12-02T04:15:26.103Z,-0.10
2017-12-02T04:17:53.608Z,-0.10
2017-12-02T04:20:21.105Z,-0.20
2017-12-02T04:22:48.622Z,-0.30
2017-12-02T04:25:16.115Z,-0.40
2017-12-02T04:27:43.645Z,-0.40
2017-12-02T04:30:11.185Z,-0.50
2017-12-02T04:32:39.434Z,-0.50
2017-12-02T04:35:06.935Z,-0.60
2017-12-02T04:37:34.470Z,-0.70
2017-12-02T04:40:02.720Z,-0.80
2017-12-02T04:42:30.223Z,-0.80
2017-12-02T04:44:57.757Z,-0.90
2017-12-02T04:47:26.025Z,-1.00
2017-12-02T04:49:54.315Z,-1.00
2017-12-02T04:52:21.850Z,-1.00
2017-12-02T04:54:49.414Z,-1.10
2017-12-02T04:57:17.672Z,-1.10
2017-12-02T04:59:45.183Z,-1.20
2017-12-02T05:02:12.723Z,-1.20
2017-12-02T05:04:40.230Z,-1.30
2017-12-02T05:07:07.776Z,-1.20
2017-12-02T05:09:35.273Z,-1.20
2017-12-02T05:12:03.543Z,-1.20
2017-12-02T05:14:31.861Z,-1.30
2017-12-02T05:16:59.400Z,-1.30
2017-12-02T05:19:27.747Z,-1.40
2017-12-02T05:21:55.284Z,-1.40
2017-12-02T05:24:22.791Z,-1.50
2017-12-02T05:26:50.316Z,-1.60
2017-12-02T05:29:17.851Z,-1.70
2017-12-02T05:31:45.349Z,-1.80
2017-12-02T05:34:13.638Z,-1.80
2017-12-02T05:36:41.126Z,-1.80
2017-12-02T05:39:08.676Z,-1.80
2017-12-02T05:41:36.315Z,-1.80
2017-12-02T05:44:03.862Z,-1.90
2017-12-02T05:46:32.118Z,-1.90
2017-12-02T05:48:59.675Z,-1.90
2017-12-02T05:51:27.175Z,-2.00
2017-12-02T05:53:54.701Z,-1.90
2017-12-02T05:56:22.956Z,-1.70
2017-12-02T05:58:50.496Z,-1.80
2017-12-02T06:01:17.984Z,-1.70
2017-12-02T06:03:46.257Z,-1.50
2017-12-02T06:06:13.781Z,-1.50
2017-12-02T06:08:41.325Z,-1.40
2017-12-02T06:11:08.862Z,-1.30
2017-12-02T06:13:36.359Z,-1.20
2017-12-02T06:16:03.908Z,-1.10
2017-12-02T06:18:31.418Z,-1.10
2017-12-02T06:20:58.922Z,-1.20
2017-12-02T06:23:26.455Z,-1.20
2017-12-02T06:25:53.996Z,-1.20
2017-12-02T06:28:21.501Z,-1.30
2017-12-02T06:30:49.038Z,-1.40
2017-12-02T06:33:16.539Z,-1.50
2017-12-02T06:35:44.827Z,-1.70
2017-12-02T06:38:12.336Z,-1.70
2017-12-02T06:40:39.871Z,-1.70
2017-12-02T06:43:07.378Z,-1.70
2017-12-02T06:45:34.876Z,-1.60
2017-12-02T06:48:02.415Z,-1.50
2017-12-02T06:50:30.680Z,-1.30
2017-12-02T06:52:58.956Z,-1.30
2017-12-02T06:55:27.256Z,-1.30
2017-12-02T06:57:54.773Z,-1.30
2017-12-02T07:00:22.325Z,-1.30
2017-12-02T07:02:49.824Z,-1.20
2017-12-02T07:05:17.326Z,-1.30
2017-12-02T07:07:44.860Z,-1.30
2017-12-02T07:10:12.370Z,-1.40
2017-12-02T07:12:40.673Z,-1.40
2017-12-02T07:15:08.254Z,-1.40
2017-12-02T07:17:35.803Z,-1.30
2017-12-02T07:20:03.312Z,-1.20
2017-12-02T07:22:30.829Z,-1.20
2017-12-02T07:24:58.364Z,-1.10
2017-12-02T07:27:25.867Z,-1.00
2017-12-02T07:29:53.396Z,-1.00
2017-12-02T07:32:20.891Z,-1.00
2017-12-02T07:34:48.415Z,-1.10
2017-12-02T07:37:15.912Z,-1.10
2017-12-02T07:39:43.427Z,-1.30
2017-12-02T07:42:11.065Z,-1.30
2017-12-02T07:44:38.716Z,-1.40
2017-12-02T07:47:06.208Z,-1.50
2017-12-02T07:49:33.742Z,-1.50
2017-12-02T07:52:01.237Z,-1.60
2017-12-02T07:54:28.727Z,-1.60
2017-12-02T07:56:56.398Z,-1.50
2017-12-02T07:59:24.031Z,-1.50
2017-12-02T08:01:51.565Z,-1.50
2017-12-02T08:04:19.062Z,-1.40
2017-12-02T08:06:47.861Z,-1.20
2017-12-02T08:09:15.587Z,-1.20
2017-12-02T08:11:43.118Z,-1.20
2017-12-02T08:14:11.010Z,-1.10
2017-12-02T08:16:39.441Z,-1.10
2017-12-02T08:22:07.592Z,-1.10
2017-12-02T08:24:35.137Z,-1.10
2017-12-02T08:27:06.373Z,-1.20
2017-12-02T08:29:54.044Z,-1.20
2017-12-02T08:32:21.539Z,-1.10
2017-12-02T08:34:50.625Z,-1.00
2017-12-02T08:37:19.039Z,-1.00
2017-12-02T08:39:46.553Z,-1.00
2017-12-02T08:42:14.088Z,-0.90
2017-12-02T08:44:41.576Z,-0.80
2017-12-02T08:47:09.860Z,-0.50
2017-12-02T08:49:37.352Z,-0.60
2017-12-02T08:52:04.871Z,-0.40
2017-12-02T08:54:33.143Z,-0.60
2017-12-02T08:57:01.559Z,-0.70
2017-12-02T08:59:29.066Z,-0.70
2017-12-02T09:01:57.336Z,-0.80
2017-12-02T09:04:25.647Z,-0.70
2017-12-02T09:06:53.171Z,-0.80
2017-12-02T09:09:21.452Z,-0.90
2017-12-02T09:11:49.781Z,-1.00
2017-12-02T09:14:17.298Z,-1.00
2017-12-02T09:16:44.807Z,-0.90
2017-12-02T09:19:12.329Z,-0.80
2017-12-02T09:21:39.825Z,-0.80
2017-12-02T09:24:07.347Z,-0.80
2017-12-02T09:26:34.880Z,-0.80
2017-12-02T09:29:03.165Z,-0.70
2017-12-02T09:31:30.691Z,-0.70
2017-12-02T09:33:59.007Z,-0.70
2017-12-02T09:36:27.274Z,-0.60
2017-12-02T09:38:54.785Z,-0.70
2017-12-02T09:41:22.316Z,-0.50
2017-12-02T09:43:49.808Z,-0.40
2017-12-02T09:46:17.308Z,-0.40
2017-12-02T09:48:44.843Z,-0.30
2017-12-02T09:51:13.114Z,-0.10
2017-12-02T09:53:41.397Z,0.00
2017-12-02T09:56:08.938Z,-0.10
2017-12-02T09:58:37.203Z,0.00
2017-12-02T10:01:04.736Z,0.00
2017-12-02T10:03:32.233Z,0.00
2017-12-02T10:06:00.516Z,0.10
2017-12-02T10:08:28.023Z,0.10
2017-12-02T10:10:55.564Z,0.20
2017-12-02T10:13:23.063Z,0.20
2017-12-02T10:15:50.573Z,0.20
2017-12-02T10:18:18.841Z,0.30
2017-12-02T10:20:46.374Z,0.30
2017-12-02T10:23:14.659Z,0.30
2017-12-02T10:25:42.164Z,0.30
2017-12-02T10:28:09.684Z,0.40
2017-12-02T10:30:37.190Z,0.40
2017-12-02T10:33:04.714Z,0.40
2017-12-02T10:35:32.216Z,0.40
2017-12-02T10:38:00.499Z,0.40
2017-12-02T10:40:28.819Z,0.30
2017-12-02T10:42:56.323Z,0.30
2017-12-02T10:45:24.612Z,0.40
2017-12-02T10:47:52.888Z,0.30
2017-12-02T10:50:21.208Z,0.40
2017-12-02T10:52:48.765Z,0.40
2017-12-02T10:55:16.310Z,0.40
2017-12-02T10:57:43.827Z,0.40
2017-12-02T11:00:12.087Z,0.50
2017-12-02T11:02:40.392Z,0.50
2017-12-02T11:05:07.899Z,0.50
2017-12-02T11:07:35.393Z,0.60
2017-12-02T11:10:03.700Z,0.70
2017-12-02T11:12:31.191Z,0.70
2017-12-02T11:14:58.687Z,0.80
2017-12-02T11:17:26.966Z,1.10
2017-12-02T11:19:54.477Z,1.10
2017-12-02T11:22:21.984Z,1.20
2017-12-02T11:24:49.616Z,1.30
2017-12-02T11:27:17.098Z,1.30
2017-12-02T11:29:44.583Z,1.30
2017-12-02T11:32:12.103Z,1.30
2017-12-02T11:34:40.364Z,1.20
2017-12-02T11:37:08.646Z,1.10
2017-12-02T11:39:36.939Z,1.10
2017-12-02T11:42:04.428Z,1.10
2017-12-02T11:44:31.937Z,1.20
2017-12-02T11:46:59.500Z,1.40
2017-12-02T11:49:27.763Z,1.50
2017-12-02T11:51:56.054Z,1.60
2017-12-02T11:54:23.564Z,1.60
2017-12-02T11:56:51.063Z,1.60
2017-12-02T11:59:18.590Z,1.60
2017-12-02T12:01:46.107Z,1.60
2017-12-02T12:06:47.614Z,1.30
2017-12-02T12:09:15.139Z,1.20
2017-12-02T12:11:42.650Z,1.10
2017-12-02T12:14:10.947Z,1.10
2017-12-02T12:16:38.448Z,1.10
2017-12-02T12:19:05.935Z,1.10
2017-12-02T12:21:34.230Z,1.20
2017-12-02T12:24:01.751Z,1.20
2017-12-02T12:26:29.381Z,1.10
2017-12-02T12:28:56.884Z,0.90
2017-12-02T12:31:25.205Z,0.90
2017-12-02T12:33:52.735Z,0.90
2017-12-02T12:36:20.248Z,0.90
2017-12-02T12:38:47.839Z,0.90
2017-12-02T12:41:15.434Z,0.90
2017-12-02T12:43:43.413Z,1.00
2017-12-02T12:46:10.912Z,1.00
2017-12-02T12:48:38.403Z,1.10
2017-12-02T12:51:05.925Z,1.20
2017-12-02T12:53:33.426Z,1.20
2017-12-02T12:56:01.717Z,1.30
2017-12-02T12:58:29.211Z,1.30
2017-12-02T13:00:56.727Z,1.30
2017-12-02T13:03:24.987Z,1.60
2017-12-02T13:05:53.276Z,1.80
2017-12-02T13:08:20.794Z,1.80
2017-12-02T13:10:48.303Z,2.20
2017-12-02T13:13:15.833Z,2.50
2017-12-02T13:15:44.091Z,2.80
2017-12-02T13:18:11.611Z,2.70
2017-12-02T13:20:39.106Z,2.80
2017-12-02T13:23:06.630Z,2.80
2017-12-02T13:25:34.125Z,2.70
2017-12-02T13:28:01.629Z,2.70
2017-12-02T13:30:29.157Z,2.50
2017-12-02T13:32:57.430Z,2.10
2017-12-02T13:35:25.720Z,1.90
2017-12-02T13:37:53.214Z,1.90
2017-12-02T13:40:20.754Z,1.70
2017-12-02T13:42:48.275Z,1.60
2017-12-02T13:45:16.685Z,1.40
2017-12-02T13:47:44.184Z,1.40
2017-12-02T13:50:11.676Z,1.30
2017-12-02T13:52:40.059Z,1.00
2017-12-02T13:55:09.061Z,1.00
2017-12-02T13:57:36.594Z,1.00
2017-12-02T14:00:04.092Z,1.00
2017-12-02T14:02:31.637Z,1.10
2017-12-02T14:04:59.156Z,1.10
2017-12-02T14:07:27.426Z,0.80
2017-12-02T14:09:55.712Z,0.60
2017-12-02T14:12:23.979Z,0.50
2017-12-02T14:14:52.272Z,0.50
2017-12-02T14:17:20.540Z,0.50
2017-12-02T14:19:48.813Z,0.30
2017-12-02T14:22:16.336Z,0.30
2017-12-02T14:24:43.827Z,0.40
2017-12-02T14:27:12.112Z,0.60
2017-12-02T14:29:39.604Z,0.60
2017-12-02T14:32:07.907Z,0.60
2017-12-02T14:34:35.396Z,0.60
2017-12-02T14:37:03.671Z,0.50
2017-12-02T14:39:32.217Z,0.40
2017-12-02T14:41:59.708Z,0.40
2017-12-02T14:44:27.986Z,0.50
2017-12-02T14:46:55.488Z,0.40
2017-12-02T14:49:23.122Z,0.40
2017-12-02T14:51:50.613Z,0.50
2017-12-02T14:54:18.128Z,0.50
2017-12-02T14:56:45.644Z,0.50
2017-12-02T14:59:13.146Z,0.50
2017-12-02T15:01:40.687Z,0.50
2017-12-02T15:04:08.179Z,0.50
2017-12-02T15:06:36.521Z,0.40
2017-12-02T15:09:04.011Z,0.40
2017-12-02T15:11:31.531Z,0.40
2017-12-02T15:13:59.049Z,0.30
2017-12-02T15:16:27.365Z,0.00
2017-12-02T15:18:54.871Z,0.00
2017-12-02T15:21:23.130Z,-0.40
2017-12-02T15:23:50.664Z,-0.40
2017-12-02T15:26:18.170Z,-0.50
2017-12-02T15:28:46.472Z,-0.50
2017-12-02T15:31:14.808Z,-0.50
2017-12-02T15:33:42.337Z,-0.50
2017-12-02T15:36:09.830Z,-0.60
2017-12-02T15:38:38.145Z,-0.60
2017-12-02T15:41:05.651Z,-0.70
2017-12-02T15:43:33.932Z,-0.70
2017-12-02T15:46:02.243Z,-0.70
2017-12-02T15:48:29.743Z,-0.70
2017-12-02T15:50:57.263Z,-0.70
2017-12-02T15:53:24.760Z,-0.70
2017-12-02T15:55:52.282Z,-0.70
2017-12-02T15:58:19.783Z,-0.70
2017-12-02T16:00:47.307Z,-0.70
2017-12-02T16:03:14.791Z,-0.70
2017-12-02T16:05:42.289Z,-0.70
2017-12-02T16:08:09.823Z,-0.70
2017-12-02T16:10:38.083Z,-0.60
2017-12-02T16:13:05.621Z,-0.60
2017-12-02T16:15:33.148Z,-0.60
2017-12-02T16:18:00.676Z,-0.60
2017-12-02T16:20:28.934Z,-0.60
2017-12-02T16:22:56.471Z,-0.60
2017-12-02T16:25:23.967Z,-0.50
2017-12-02T16:27:52.233Z,-0.50
2017-12-02T16:30:20.520Z,-0.50
2017-12-02T16:32:48.014Z,-0.50
2017-12-02T16:35:15.536Z,-0.50
2017-12-02T16:37:43.044Z,-0.50
2017-12-02T16:40:10.591Z,-0.60
2017-12-02T16:42:38.140Z,-0.80
2017-12-02T16:45:05.675Z,-0.80
2017-12-02T16:47:33.176Z,-0.80
2017-12-02T16:50:00.918Z,-0.70
2017-12-02T16:52:28.468Z,-0.70
2017-12-02T16:54:56.090Z,-0.70
2017-12-02T16:57:24.386Z,-0.60
2017-12-02T16:59:52.157Z,-0.60
2017-12-02T17:02:19.702Z,-0.50
2017-12-02T17:04:47.208Z,-0.50
2017-12-02T17:07:14.707Z,-0.60
2017-12-02T17:09:42.233Z,-0.70
2017-12-02T17:12:09.761Z,-0.70
2017-12-02T17:14:37.293Z,-0.80
2017-12-02T17:17:04.790Z,-0.80
2017-12-02T17:19:32.304Z,-0.70
2017-12-02T17:21:59.827Z,-0.70
2017-12-02T17:24:27.315Z,-0.70
2017-12-02T17:26:54.812Z,-0.70
2017-12-02T17:29:22.350Z,-0.70
2017-12-02T17:31:49.862Z,-0.70
2017-12-02T17:34:18.157Z,-0.70
2017-12-02T17:36:45.659Z,-0.80
2017-12-02T17:39:13.182Z,-0.70
2017-12-02T17:41:40.721Z,-0.70
2017-12-02T17:44:08.214Z,-0.70
2017-12-02T17:46:35.709Z,-0.70
2017-12-02T17:49:03.244Z,-0.70
2017-12-02T17:51:30.774Z,-0.80
2017-12-02T17:53:58.332Z,-0.90
2017-12-02T17:56:25.826Z,-0.90
2017-12-02T17:58:53.327Z,-0.90
2017-12-02T18:01:20.870Z,-0.80
2017-12-02T18:03:48.373Z,-0.80
2017-12-02T18:06:15.865Z,-0.80
2017-12-02T18:08:43.409Z,-0.80
2017-12-02T18:11:11.046Z,-0.80
2017-12-02T18:13:38.553Z,-0.80
2017-12-02T18:16:06.833Z,-0.80
2017-12-02T18:18:34.395Z,-0.80
2017-12-02T18:21:01.875Z,-0.80
2017-12-02T18:23:29.412Z,-0.90
2017-12-02T18:25:56.930Z,-0.90
2017-12-02T18:28:25.196Z,-0.90
2017-12-02T18:30:52.733Z,-0.90
2017-12-02T18:33:20.265Z,-0.90
2017-12-02T18:35:47.783Z,-0.90
2017-12-02T18:38:16.040Z,-0.90
2017-12-02T18:40:43.559Z,-0.90
2017-12-02T18:43:11.076Z,-0.90
2017-12-02T18:45:39.368Z,-0.90
2017-12-02T18:48:06.884Z,-0.90
2017-12-02T18:50:34.392Z,-0.90
2017-12-02T18:53:01.916Z,-0.80
2017-12-02T18:55:30.184Z,-0.80
2017-12-02T18:57:57.707Z,-0.80
2017-12-02T19:00:25.973Z,-0.90
2017-12-02T19:02:53.491Z,-0.90
2017-12-02T19:05:20.988Z,-0.90
2017-12-02T19:07:48.513Z,-0.90
2017-12-02T19:10:16.021Z,-0.90
2017-12-02T19:12:43.545Z,-0.90
2017-12-02T19:15:11.124Z,-0.90
2017-12-02T19:17:38.658Z,-0.90
2017-12-02T19:20:06.254Z,-0.90
2017-12-02T19:22:33.751Z,-0.90
2017-12-02T19:25:01.572Z,-1.00
2017-12-02T19:27:29.095Z,-1.00
2017-12-02T19:29:56.655Z,-1.00
2017-12-02T19:32:24.195Z,-0.90
2017-12-02T19:34:51.825Z,-1.00
2017-12-02T19:37:20.126Z,-1.10
2017-12-02T19:39:47.619Z,-1.10
2017-12-02T19:42:15.115Z,-1.10
2017-12-02T19:44:43.399Z,-1.00
2017-12-02T19:47:11.678Z,-1.00
2017-12-02T19:49:40.082Z,-0.90
2017-12-02T19:52:07.578Z,-0.90
2017-12-02T19:54:35.115Z,-0.80
2017-12-02T19:57:02.775Z,-0.90
2017-12-02T19:59:30.353Z,-0.90
2017-12-02T20:01:57.914Z,-0.90
2017-12-02T20:04:25.454Z,-0.90
2017-12-02T20:06:53.150Z,-0.90
2017-12-02T20:09:20.728Z,-0.90
2017-12-02T20:11:49.043Z,-0.60
2017-12-02T20:14:17.687Z,-0.50
2017-12-02T20:16:45.928Z,-0.50
2017-12-02T20:19:13.443Z,-0.50
2017-12-02T20:21:40.963Z,-0.40
2017-12-02T20:24:09.273Z,-0.70
2017-12-02T20:26:37.619Z,-0.90
2017-12-02T20:29:05.115Z,-0.90
2017-12-02T20:31:32.671Z,-1.00
2017-12-02T20:34:00.167Z,-1.10
2017-12-02T20:36:27.674Z,-1.10
2017-12-02T20:38:55.212Z,-1.10
2017-12-02T20:41:22.769Z,-1.20
2017-12-02T20:43:50.333Z,-1.20
2017-12-02T20:46:17.841Z,-1.30
2017-12-02T20:48:46.122Z,-1.20
2017-12-02T20:51:13.682Z,-1.20
2017-12-02T20:53:42.328Z,-1.00
2017-12-02T20:56:09.836Z,-1.00
2017-12-02T20:58:38.115Z,-1.10
2017-12-02T21:01:05.648Z,-1.10
2017-12-02T21:03:33.144Z,-1.20
2017-12-02T21:06:00.663Z,-1.30
2017-12-02T21:08:28.944Z,-1.40
2017-12-02T21:10:57.227Z,-1.40
2017-12-02T21:13:25.491Z,-1.50
2017-12-02T21:15:53.783Z,-1.40
2017-12-02T21:18:21.294Z,-1.40
2017-12-02T21:20:48.801Z,-1.40
2017-12-02T21:23:16.319Z,-1.40
2017-12-02T21:25:43.807Z,-1.50
2017-12-02T21:28:11.304Z,-1.50
2017-12-02T21:30:38.819Z,-1.40
2017-12-02T21:33:07.076Z,-1.30
2017-12-02T21:35:35.368Z,-1.30
2017-12-02T21:38:03.639Z,-1.30
2017-12-02T21:40:31.156Z,-1.30
2017-12-02T21:42:58.639Z,-1.30
2017-12-02T21:45:26.160Z,-1.30
2017-12-02T21:47:53.663Z,-1.40
2017-12-02T21:50:21.924Z,-1.50
2017-12-02T21:52:49.445Z,-1.60
2017-12-02T21:55:17.705Z,-1.60
2017-12-02T21:57:45.237Z,-1.60
2017-12-02T22:00:12.766Z,-1.60
2017-12-02T22:02:40.271Z,-1.60
2017-12-02T22:05:07.773Z,-1.60
2017-12-02T22:07:35.296Z,-1.50
2017-12-02T22:10:03.568Z,-1.40
2017-12-02T22:12:31.063Z,-1.50
2017-12-02T22:14:58.607Z,-1.50
2017-12-02T22:17:26.141Z,-1.50
2017-12-02T22:19:53.637Z,-1.50
2017-12-02T22:22:21.132Z,-1.40
2017-12-02T22:24:48.623Z,-1.40
2017-12-02T22:27:16.908Z,-1.40
2017-12-02T22:29:44.398Z,-1.40
2017-12-02T22:32:11.919Z,-1.40
2017-12-02T22:34:39.408Z,-1.40
2017-12-02T22:37:06.924Z,-1.40
2017-12-02T22:39:35.176Z,-1.60
2017-12-02T22:42:02.662Z,-1.60
2017-12-02T22:44:30.172Z,-1.60
2017-12-02T22:46:57.662Z,-1.50
2017-12-02T22:49:25.949Z,-1.50
2017-12-02T22:51:53.444Z,-1.50
2017-12-02T22:54:20.932Z,-1.50
2017-12-02T22:56:48.460Z,-1.50
2017-12-02T22:59:16.459Z,-1.50
2017-12-02T23:01:43.983Z,-1.50
2017-12-02T23:04:11.480Z,-1.50
2017-12-02T23:06:38.983Z,-1.50
2017-12-02T23:09:06.493Z,-1.60
2017-12-02T23:11:34.747Z,-1.60
2017-12-02T23:14:02.267Z,-1.70
2017-12-02T23:16:29.751Z,-1.60
2017-12-02T23:18:57.274Z,-1.60
2017-12-02T23:21:24.771Z,-1.60
2017-12-02T23:23:52.267Z,-1.60
2017-12-02T23:26:19.807Z,-1.50
2017-12-02T23:28:47.290Z,-1.50
2017-12-02T23:31:14.816Z,-1.40
2017-12-02T23:33:42.332Z,-1.50
2017-12-02T23:36:09.862Z,-1.50
2017-12-02T23:38:37.351Z,-1.50
2017-12-02T23:41:04.899Z,-1.50
2017-12-02T23:43:33.140Z,-1.40
2017-12-02T23:46:01.402Z,-1.40
2017-12-02T23:48:29.683Z,-1.40
2017-12-02T23:50:57.948Z,-1.60
2017-12-02T23:53:26.205Z,-1.60
2017-12-02T23:55:54.520Z,-1.70
2017-12-02T23:58:22.010Z,-1.80
